sensor_id;sensor_type;location;lat;lon;timestamp;temperature;humidity
2995;DHT22;35277;49.890;8.222;2022-08-18T00:02:14;29.40;64.60
2995;DHT22;35277;49.890;8.222;2022-08-18T00:04:44;29.40;64.50
2995;DHT22;35277;49.890;8.222;2022-08-18T00:07:17;29.40;64.50
2995;DHT22;35277;49.890;8.222;2022-08-18T00:09:45;29.40;64.50
2995;DHT22;35277;49.890;8.222;2022-08-18T00:12:18;29.40;64.60
2995;DHT22;35277;49.890;8.222;2022-08-18T00:14:46;29.40;64.50
2995;DHT22;35277;49.890;8.222;2022-08-18T00:17:15;29.40;64.60
2995;DHT22;35277;49.890;8.222;2022-08-18T00:19:44;29.40;64.60
2995;DHT22;35277;49.890;8.222;2022-08-18T00:22:17;29.40;64.60
2995;DHT22;35277;49.890;8.222;2022-08-18T00:24:47;29.40;64.60
2995;DHT22;35277;49.890;8.222;2022-08-18T00:27:25;29.40;64.60
2995;DHT22;35277;49.890;8.222;2022-08-18T00:29:56;29.40;64.60
2995;DHT22;35277;49.890;8.222;2022-08-18T00:32:26;29.40;64.60
2995;DHT22;35277;49.890;8.222;2022-08-18T00:34:54;29.40;64.70
2995;DHT22;35277;49.890;8.222;2022-08-18T00:37:22;29.40;64.70
2995;DHT22;35277;49.890;8.222;2022-08-18T00:39:51;29.40;64.70
2995;DHT22;35277;49.890;8.222;2022-08-18T00:42:23;29.40;64.70
2995;DHT22;35277;49.890;8.222;2022-08-18T00:44:59;29.40;64.70
2995;DHT22;35277;49.890;8.222;2022-08-18T00:47:27;29.40;64.70
2995;DHT22;35277;49.890;8.222;2022-08-18T00:50:11;29.40;64.70
2995;DHT22;35277;49.890;8.222;2022-08-18T00:52:44;29.40;64.70
2995;DHT22;35277;49.890;8.222;2022-08-18T00:55:13;29.40;64.80
2995;DHT22;35277;49.890;8.222;2022-08-18T00:57:45;29.40;64.80
2995;DHT22;35277;49.890;8.222;2022-08-18T01:00:14;29.40;64.80
2995;DHT22;35277;49.890;8.222;2022-08-18T01:02:47;29.40;64.80
2995;DHT22;35277;49.890;8.222;2022-08-18T01:05:20;29.40;64.80
2995;DHT22;35277;49.890;8.222;2022-08-18T01:07:49;29.40;64.80
2995;DHT22;35277;49.890;8.222;2022-08-18T01:10:19;29.40;64.80
2995;DHT22;35277;49.890;8.222;2022-08-18T01:12:52;29.40;64.80
2995;DHT22;35277;49.890;8.222;2022-08-18T01:15:21;29.40;64.80
2995;DHT22;35277;49.890;8.222;2022-08-18T01:17:56;29.40;64.80
2995;DHT22;35277;49.890;8.222;2022-08-18T01:20:46;29.40;64.80
2995;DHT22;35277;49.890;8.222;2022-08-18T01:23:35;29.40;64.80
2995;DHT22;35277;49.890;8.222;2022-08-18T01:26:03;29.40;64.80
2995;DHT22;35277;49.890;8.222;2022-08-18T01:28:32;29.40;64.80
2995;DHT22;35277;49.890;8.222;2022-08-18T01:31:02;29.40;64.80
2995;DHT22;35277;49.890;8.222;2022-08-18T01:33:32;29.40;64.80
2995;DHT22;35277;49.890;8.222;2022-08-18T01:36:09;29.40;64.80
2995;DHT22;35277;49.890;8.222;2022-08-18T01:38:41;29.40;64.80
2995;DHT22;35277;49.890;8.222;2022-08-18T01:41:09;29.40;64.80
2995;DHT22;35277;49.890;8.222;2022-08-18T01:43:56;29.40;64.90
2995;DHT22;35277;49.890;8.222;2022-08-18T01:46:24;29.40;64.90
2995;DHT22;35277;49.890;8.222;2022-08-18T01:48:53;29.40;64.80
2995;DHT22;35277;49.890;8.222;2022-08-18T01:51:21;29.40;64.80
2995;DHT22;35277;49.890;8.222;2022-08-18T01:54:09;29.40;64.90
2995;DHT22;35277;49.890;8.222;2022-08-18T01:56:37;29.40;64.90
2995;DHT22;35277;49.890;8.222;2022-08-18T01:59:06;29.40;64.90
2995;DHT22;35277;49.890;8.222;2022-08-18T02:01:37;29.40;64.90
2995;DHT22;35277;49.890;8.222;2022-08-18T02:04:15;29.40;64.90
2995;DHT22;35277;49.890;8.222;2022-08-18T02:07:06;29.40;64.90
2995;DHT22;35277;49.890;8.222;2022-08-18T02:09:37;29.40;64.90
2995;DHT22;35277;49.890;8.222;2022-08-18T02:12:07;29.40;64.90
2995;DHT22;35277;49.890;8.222;2022-08-18T02:14:35;29.40;64.90
2995;DHT22;35277;49.890;8.222;2022-08-18T02:17:05;29.40;64.90
2995;DHT22;35277;49.890;8.222;2022-08-18T02:19:34;29.40;64.90
2995;DHT22;35277;49.890;8.222;2022-08-18T02:22:05;29.40;64.90
2995;DHT22;35277;49.890;8.222;2022-08-18T02:24:33;29.40;65.00
2995;DHT22;35277;49.890;8.222;2022-08-18T02:27:02;29.40;64.90
2995;DHT22;35277;49.890;8.222;2022-08-18T02:29:31;29.40;64.90
2995;DHT22;35277;49.890;8.222;2022-08-18T02:31:58;29.40;64.90
2995;DHT22;35277;49.890;8.222;2022-08-18T02:34:26;29.40;64.90
2995;DHT22;35277;49.890;8.222;2022-08-18T02:36:54;29.40;65.00
2995;DHT22;35277;49.890;8.222;2022-08-18T02:39:22;29.40;65.00
2995;DHT22;35277;49.890;8.222;2022-08-18T02:41:49;29.40;65.00
2995;DHT22;35277;49.890;8.222;2022-08-18T02:44:20;29.40;65.00
2995;DHT22;35277;49.890;8.222;2022-08-18T02:46:51;29.40;65.00
2995;DHT22;35277;49.890;8.222;2022-08-18T02:49:19;29.40;65.10
2995;DHT22;35277;49.890;8.222;2022-08-18T02:51:47;29.40;65.00
2995;DHT22;35277;49.890;8.222;2022-08-18T02:54:17;29.40;65.00
2995;DHT22;35277;49.890;8.222;2022-08-18T02:56:45;29.40;65.00
2995;DHT22;35277;49.890;8.222;2022-08-18T02:59:16;29.40;65.00
2995;DHT22;35277;49.890;8.222;2022-08-18T03:01:48;29.40;65.00
2995;DHT22;35277;49.890;8.222;2022-08-18T03:04:19;29.40;65.00
2995;DHT22;35277;49.890;8.222;2022-08-18T03:06:55;29.40;65.00
2995;DHT22;35277;49.890;8.222;2022-08-18T03:09:24;29.40;65.00
2995;DHT22;35277;49.890;8.222;2022-08-18T03:11:52;29.40;65.10
2995;DHT22;35277;49.890;8.222;2022-08-18T03:14:20;29.40;65.10
2995;DHT22;35277;49.890;8.222;2022-08-18T03:16:49;29.40;65.10
2995;DHT22;35277;49.890;8.222;2022-08-18T03:19:21;29.40;65.10
2995;DHT22;35277;49.890;8.222;2022-08-18T03:21:49;29.40;65.10
2995;DHT22;35277;49.890;8.222;2022-08-18T03:24:18;29.40;65.10
2995;DHT22;35277;49.890;8.222;2022-08-18T03:26:50;29.40;65.10
2995;DHT22;35277;49.890;8.222;2022-08-18T03:29:19;29.40;65.10
2995;DHT22;35277;49.890;8.222;2022-08-18T03:31:48;29.40;65.10
2995;DHT22;35277;49.890;8.222;2022-08-18T03:34:18;29.40;65.10
2995;DHT22;35277;49.890;8.222;2022-08-18T03:36:47;29.40;65.10
2995;DHT22;35277;49.890;8.222;2022-08-18T03:39:16;29.40;65.20
2995;DHT22;35277;49.890;8.222;2022-08-18T03:41:45;29.40;65.20
2995;DHT22;35277;49.890;8.222;2022-08-18T03:44:28;29.40;65.20
2995;DHT22;35277;49.890;8.222;2022-08-18T03:46:58;29.40;65.20
2995;DHT22;35277;49.890;8.222;2022-08-18T03:49:26;29.40;65.20
2995;DHT22;35277;49.890;8.222;2022-08-18T03:51:54;29.40;65.20
2995;DHT22;35277;49.890;8.222;2022-08-18T03:54:25;29.40;65.20
2995;DHT22;35277;49.890;8.222;2022-08-18T03:56:53;29.40;65.20
2995;DHT22;35277;49.890;8.222;2022-08-18T03:59:24;29.40;65.20
2995;DHT22;35277;49.890;8.222;2022-08-18T04:01:53;29.40;65.20
2995;DHT22;35277;49.890;8.222;2022-08-18T04:04:25;29.40;65.20
2995;DHT22;35277;49.890;8.222;2022-08-18T04:06:55;29.40;65.30
2995;DHT22;35277;49.890;8.222;2022-08-18T04:09:25;29.40;65.30
2995;DHT22;35277;49.890;8.222;2022-08-18T04:11:55;29.40;65.40
2995;DHT22;35277;49.890;8.222;2022-08-18T04:14:24;29.40;65.40
2995;DHT22;35277;49.890;8.222;2022-08-18T04:16:54;29.40;65.40
2995;DHT22;35277;49.890;8.222;2022-08-18T04:19:24;29.40;65.50
2995;DHT22;35277;49.890;8.222;2022-08-18T04:21:55;29.40;65.60
2995;DHT22;35277;49.890;8.222;2022-08-18T04:24:24;29.40;65.60
2995;DHT22;35277;49.890;8.222;2022-08-18T04:26:58;29.40;65.60
2995;DHT22;35277;49.890;8.222;2022-08-18T04:29:27;29.40;65.70
2995;DHT22;35277;49.890;8.222;2022-08-18T04:31:55;29.40;65.70
2995;DHT22;35277;49.890;8.222;2022-08-18T04:34:27;29.30;65.60
2995;DHT22;35277;49.890;8.222;2022-08-18T04:36:55;29.40;65.80
2995;DHT22;35277;49.890;8.222;2022-08-18T04:39:23;29.30;65.70
2995;DHT22;35277;49.890;8.222;2022-08-18T04:41:51;29.40;65.80
2995;DHT22;35277;49.890;8.222;2022-08-18T04:44:20;29.30;65.70
2995;DHT22;35277;49.890;8.222;2022-08-18T04:46:50;29.30;65.70
2995;DHT22;35277;49.890;8.222;2022-08-18T04:49:19;29.30;65.80
2995;DHT22;35277;49.890;8.222;2022-08-18T04:51:50;29.30;65.80
2995;DHT22;35277;49.890;8.222;2022-08-18T04:54:52;29.30;65.80
2995;DHT22;35277;49.890;8.222;2022-08-18T04:57:20;29.30;65.80
2995;DHT22;35277;49.890;8.222;2022-08-18T04:59:50;29.30;65.80
2995;DHT22;35277;49.890;8.222;2022-08-18T05:02:19;29.30;65.80
2995;DHT22;35277;49.890;8.222;2022-08-18T05:04:47;29.30;65.80
2995;DHT22;35277;49.890;8.222;2022-08-18T05:07:18;29.30;65.80
2995;DHT22;35277;49.890;8.222;2022-08-18T05:09:48;29.30;65.90
2995;DHT22;35277;49.890;8.222;2022-08-18T05:12:16;29.30;65.90
2995;DHT22;35277;49.890;8.222;2022-08-18T05:14:46;29.30;65.90
2995;DHT22;35277;49.890;8.222;2022-08-18T05:17:14;29.20;66.10
2995;DHT22;35277;49.890;8.222;2022-08-18T05:19:43;29.20;66.20
2995;DHT22;35277;49.890;8.222;2022-08-18T05:22:13;29.20;66.30
2995;DHT22;35277;49.890;8.222;2022-08-18T05:24:46;29.20;66.50
2995;DHT22;35277;49.890;8.222;2022-08-18T05:27:14;29.10;66.50
2995;DHT22;35277;49.890;8.222;2022-08-18T05:29:41;29.10;66.60
2995;DHT22;35277;49.890;8.222;2022-08-18T05:32:12;29.10;66.70
2995;DHT22;35277;49.890;8.222;2022-08-18T05:35:02;29.10;66.80
2995;DHT22;35277;49.890;8.222;2022-08-18T05:37:37;29.00;66.90
2995;DHT22;35277;49.890;8.222;2022-08-18T05:40:13;29.00;67.00
2995;DHT22;35277;49.890;8.222;2022-08-18T05:42:41;29.00;67.00
2995;DHT22;35277;49.890;8.222;2022-08-18T05:45:15;28.90;67.00
2995;DHT22;35277;49.890;8.222;2022-08-18T05:47:43;28.90;67.20
2995;DHT22;35277;49.890;8.222;2022-08-18T05:50:15;28.90;68.10
2995;DHT22;35277;49.890;8.222;2022-08-18T05:52:48;28.90;67.40
2995;DHT22;35277;49.890;8.222;2022-08-18T05:55:25;28.80;67.50
2995;DHT22;35277;49.890;8.222;2022-08-18T05:58:16;28.80;67.70
2995;DHT22;35277;49.890;8.222;2022-08-18T06:00:50;28.80;67.80
2995;DHT22;35277;49.890;8.222;2022-08-18T06:03:28;28.70;68.00
2995;DHT22;35277;49.890;8.222;2022-08-18T06:06:15;28.70;68.30
2995;DHT22;35277;49.890;8.222;2022-08-18T06:08:51;28.70;68.40
2995;DHT22;35277;49.890;8.222;2022-08-18T06:11:24;28.70;68.60
2995;DHT22;35277;49.890;8.222;2022-08-18T06:13:52;28.70;68.60
2995;DHT22;35277;49.890;8.222;2022-08-18T06:16:36;28.80;68.70
2995;DHT22;35277;49.890;8.222;2022-08-18T06:19:18;28.80;68.90
2995;DHT22;35277;49.890;8.222;2022-08-18T06:21:52;28.80;69.10
2995;DHT22;35277;49.890;8.222;2022-08-18T06:24:28;28.70;69.20
2995;DHT22;35277;49.890;8.222;2022-08-18T06:27:03;28.60;69.40
2995;DHT22;35277;49.890;8.222;2022-08-18T06:29:45;28.60;69.60
2995;DHT22;35277;49.890;8.222;2022-08-18T06:32:24;28.50;69.80
2995;DHT22;35277;49.890;8.222;2022-08-18T06:35:05;28.40;70.20
2995;DHT22;35277;49.890;8.222;2022-08-18T06:37:40;28.30;70.50
2995;DHT22;35277;49.890;8.222;2022-08-18T06:40:32;28.30;70.70
2995;DHT22;35277;49.890;8.222;2022-08-18T06:43:01;28.20;70.60
2995;DHT22;35277;49.890;8.222;2022-08-18T06:45:34;28.30;70.80
2995;DHT22;35277;49.890;8.222;2022-08-18T06:48:10;28.20;70.80
2995;DHT22;35277;49.890;8.222;2022-08-18T06:50:48;28.30;70.90
2995;DHT22;35277;49.890;8.222;2022-08-18T06:53:17;28.30;70.90
2995;DHT22;35277;49.890;8.222;2022-08-18T06:55:53;28.30;70.80
2995;DHT22;35277;49.890;8.222;2022-08-18T06:58:26;28.30;70.80
2995;DHT22;35277;49.890;8.222;2022-08-18T07:01:01;28.30;70.80
2995;DHT22;35277;49.890;8.222;2022-08-18T07:03:43;28.30;70.80
2995;DHT22;35277;49.890;8.222;2022-08-18T07:06:24;28.30;70.80
2995;DHT22;35277;49.890;8.222;2022-08-18T07:08:54;28.30;70.80
2995;DHT22;35277;49.890;8.222;2022-08-18T07:11:25;28.30;70.80
2995;DHT22;35277;49.890;8.222;2022-08-18T07:13:57;28.30;70.80
2995;DHT22;35277;49.890;8.222;2022-08-18T07:16:42;28.30;70.80
2995;DHT22;35277;49.890;8.222;2022-08-18T07:19:28;28.30;70.90
2995;DHT22;35277;49.890;8.222;2022-08-18T07:22:01;28.30;70.90
2995;DHT22;35277;49.890;8.222;2022-08-18T07:24:31;28.30;71.00
2995;DHT22;35277;49.890;8.222;2022-08-18T07:27:03;28.30;71.00
2995;DHT22;35277;49.890;8.222;2022-08-18T07:29:34;28.20;71.00
2995;DHT22;35277;49.890;8.222;2022-08-18T07:32:07;28.30;71.10
2995;DHT22;35277;49.890;8.222;2022-08-18T07:34:50;28.30;71.20
2995;DHT22;35277;49.890;8.222;2022-08-18T07:37:23;28.30;71.20
2995;DHT22;35277;49.890;8.222;2022-08-18T07:39:58;28.30;71.30
2995;DHT22;35277;49.890;8.222;2022-08-18T07:42:34;28.30;71.30
2995;DHT22;35277;49.890;8.222;2022-08-18T07:45:28;28.20;71.40
2995;DHT22;35277;49.890;8.222;2022-08-18T07:48:02;28.20;71.40
2995;DHT22;35277;49.890;8.222;2022-08-18T07:50:57;28.20;71.60
2995;DHT22;35277;49.890;8.222;2022-08-18T07:53:41;28.30;71.80
2995;DHT22;35277;49.890;8.222;2022-08-18T07:56:29;28.20;71.80
2995;DHT22;35277;49.890;8.222;2022-08-18T07:59:02;28.20;71.90
2995;DHT22;35277;49.890;8.222;2022-08-18T08:01:40;28.20;72.00
2995;DHT22;35277;49.890;8.222;2022-08-18T08:04:14;28.20;72.10
2995;DHT22;35277;49.890;8.222;2022-08-18T08:06:53;28.20;72.10
2995;DHT22;35277;49.890;8.222;2022-08-18T08:10:00;28.20;72.30
2995;DHT22;35277;49.890;8.222;2022-08-18T08:12:35;28.30;72.40
2995;DHT22;35277;49.890;8.222;2022-08-18T08:15:11;28.30;72.40
2995;DHT22;35277;49.890;8.222;2022-08-18T08:17:48;28.30;72.40
2995;DHT22;35277;49.890;8.222;2022-08-18T08:20:25;28.30;72.40
2995;DHT22;35277;49.890;8.222;2022-08-18T08:23:08;28.40;72.40
2995;DHT22;35277;49.890;8.222;2022-08-18T08:25:49;28.40;72.40
2995;DHT22;35277;49.890;8.222;2022-08-18T08:28:28;28.40;72.30
2995;DHT22;35277;49.890;8.222;2022-08-18T08:31:08;28.50;72.30
2995;DHT22;35277;49.890;8.222;2022-08-18T08:34:03;28.50;72.30
2995;DHT22;35277;49.890;8.222;2022-08-18T08:36:36;28.60;72.30
2995;DHT22;35277;49.890;8.222;2022-08-18T08:39:09;28.60;73.10
2995;DHT22;35277;49.890;8.222;2022-08-18T08:41:42;28.60;72.20
2995;DHT22;35277;49.890;8.222;2022-08-18T08:44:14;28.60;72.40
2995;DHT22;35277;49.890;8.222;2022-08-18T08:46:48;28.60;72.50
2995;DHT22;35277;49.890;8.222;2022-08-18T08:49:31;28.60;72.70
2995;DHT22;35277;49.890;8.222;2022-08-18T08:52:05;28.60;72.70
2995;DHT22;35277;49.890;8.222;2022-08-18T08:54:42;28.60;72.80
2995;DHT22;35277;49.890;8.222;2022-08-18T08:57:12;28.60;72.80
2995;DHT22;35277;49.890;8.222;2022-08-18T08:59:42;28.60;72.70
2995;DHT22;35277;49.890;8.222;2022-08-18T09:02:27;28.70;72.70
2995;DHT22;35277;49.890;8.222;2022-08-18T09:05:17;28.70;72.70
2995;DHT22;35277;49.890;8.222;2022-08-18T09:08:00;28.80;72.70
2995;DHT22;35277;49.890;8.222;2022-08-18T09:14:29;28.80;72.50
2995;DHT22;35277;49.890;8.222;2022-08-18T09:17:15;28.80;72.50
2995;DHT22;35277;49.890;8.222;2022-08-18T09:20:10;28.80;72.40
2995;DHT22;35277;49.890;8.222;2022-08-18T09:22:47;28.80;73.20
2995;DHT22;35277;49.890;8.222;2022-08-18T09:25:33;28.80;72.40
2995;DHT22;35277;49.890;8.222;2022-08-18T09:28:13;28.80;72.40
2995;DHT22;35277;49.890;8.222;2022-08-18T09:30:45;28.90;72.40
2995;DHT22;35277;49.890;8.222;2022-08-18T09:33:20;28.80;72.40
2995;DHT22;35277;49.890;8.222;2022-08-18T09:38:55;28.90;72.50
2995;DHT22;35277;49.890;8.222;2022-08-18T09:41:52;28.90;72.50
2995;DHT22;35277;49.890;8.222;2022-08-18T09:48:00;28.90;72.50
2995;DHT22;35277;49.890;8.222;2022-08-18T09:50:35;28.90;72.50
2995;DHT22;35277;49.890;8.222;2022-08-18T09:53:30;28.90;72.40
2995;DHT22;35277;49.890;8.222;2022-08-18T09:56:00;28.90;72.40
2995;DHT22;35277;49.890;8.222;2022-08-18T10:01:36;28.90;72.40
2995;DHT22;35277;49.890;8.222;2022-08-18T10:04:28;28.90;72.40
2995;DHT22;35277;49.890;8.222;2022-08-18T10:07:16;29.00;72.60
2995;DHT22;35277;49.890;8.222;2022-08-18T10:10:04;29.00;72.70
2995;DHT22;35277;49.890;8.222;2022-08-18T10:13:04;29.00;72.70
2995;DHT22;35277;49.890;8.222;2022-08-18T10:15:49;29.00;72.70
2995;DHT22;35277;49.890;8.222;2022-08-18T10:22:04;29.00;72.80
2995;DHT22;35277;49.890;8.222;2022-08-18T10:24:35;29.00;72.70
2995;DHT22;35277;49.890;8.222;2022-08-18T10:27:06;29.00;72.70
2995;DHT22;35277;49.890;8.222;2022-08-18T10:29:56;29.00;72.60
2995;DHT22;35277;49.890;8.222;2022-08-18T10:32:43;29.00;72.70
2995;DHT22;35277;49.890;8.222;2022-08-18T10:38:28;29.00;72.70
2995;DHT22;35277;49.890;8.222;2022-08-18T10:41:11;29.00;72.70
2995;DHT22;35277;49.890;8.222;2022-08-18T10:43:43;29.10;72.70
2995;DHT22;35277;49.890;8.222;2022-08-18T10:46:40;29.10;72.80
2995;DHT22;35277;49.890;8.222;2022-08-18T10:49:20;29.10;73.00
2995;DHT22;35277;49.890;8.222;2022-08-18T10:52:18;29.10;73.00
2995;DHT22;35277;49.890;8.222;2022-08-18T10:55:14;29.10;73.00
2995;DHT22;35277;49.890;8.222;2022-08-18T11:01:02;29.10;73.00
2995;DHT22;35277;49.890;8.222;2022-08-18T11:03:46;29.10;72.90
2995;DHT22;35277;49.890;8.222;2022-08-18T11:06:22;29.10;72.90
2995;DHT22;35277;49.890;8.222;2022-08-18T11:08:57;29.20;72.90
2995;DHT22;35277;49.890;8.222;2022-08-18T11:11:31;29.10;72.80
2995;DHT22;35277;49.890;8.222;2022-08-18T11:14:14;29.20;72.80
2995;DHT22;35277;49.890;8.222;2022-08-18T11:16:56;29.20;72.70
2995;DHT22;35277;49.890;8.222;2022-08-18T11:19:35;29.20;72.70
2995;DHT22;35277;49.890;8.222;2022-08-18T11:22:20;29.20;72.60
2995;DHT22;35277;49.890;8.222;2022-08-18T11:24:58;29.20;72.50
2995;DHT22;35277;49.890;8.222;2022-08-18T11:27:32;29.20;72.40
2995;DHT22;35277;49.890;8.222;2022-08-18T11:30:04;29.20;72.30
2995;DHT22;35277;49.890;8.222;2022-08-18T11:32:34;29.20;72.20
2995;DHT22;35277;49.890;8.222;2022-08-18T11:35:14;29.30;72.20
2995;DHT22;35277;49.890;8.222;2022-08-18T11:37:47;29.30;72.10
2995;DHT22;35277;49.890;8.222;2022-08-18T11:40:25;29.30;72.10
2995;DHT22;35277;49.890;8.222;2022-08-18T11:43:15;29.30;72.10
2995;DHT22;35277;49.890;8.222;2022-08-18T11:45:52;29.30;71.90
2995;DHT22;35277;49.890;8.222;2022-08-18T11:48:35;29.30;71.90
2995;DHT22;35277;49.890;8.222;2022-08-18T11:51:21;29.30;71.90
2995;DHT22;35277;49.890;8.222;2022-08-18T11:53:55;29.30;71.80
2995;DHT22;35277;49.890;8.222;2022-08-18T11:56:27;29.40;71.90
2995;DHT22;35277;49.890;8.222;2022-08-18T11:58:59;29.40;71.90
2995;DHT22;35277;49.890;8.222;2022-08-18T12:01:33;29.40;71.80
2995;DHT22;35277;49.890;8.222;2022-08-18T12:04:19;29.40;71.80
2995;DHT22;35277;49.890;8.222;2022-08-18T12:06:59;29.40;71.80
2995;DHT22;35277;49.890;8.222;2022-08-18T12:09:38;29.40;71.70
2995;DHT22;35277;49.890;8.222;2022-08-18T12:12:30;29.40;71.70
2995;DHT22;35277;49.890;8.222;2022-08-18T12:15:23;29.40;71.60
2995;DHT22;35277;49.890;8.222;2022-08-18T12:18:10;29.40;71.50
2995;DHT22;35277;49.890;8.222;2022-08-18T12:20:55;29.40;71.50
2995;DHT22;35277;49.890;8.222;2022-08-18T12:23:24;29.40;71.40
2995;DHT22;35277;49.890;8.222;2022-08-18T12:26:04;29.40;71.30
2995;DHT22;35277;49.890;8.222;2022-08-18T12:28:52;29.40;71.20
2995;DHT22;35277;49.890;8.222;2022-08-18T12:31:27;29.40;71.20
2995;DHT22;35277;49.890;8.222;2022-08-18T12:34:14;29.40;71.10
2995;DHT22;35277;49.890;8.222;2022-08-18T12:36:43;29.40;71.00
2995;DHT22;35277;49.890;8.222;2022-08-18T12:39:13;29.40;70.90
2995;DHT22;35277;49.890;8.222;2022-08-18T12:41:40;29.40;70.90
2995;DHT22;35277;49.890;8.222;2022-08-18T12:44:09;29.40;70.80
2995;DHT22;35277;49.890;8.222;2022-08-18T12:46:57;29.40;70.80
2995;DHT22;35277;49.890;8.222;2022-08-18T12:49:25;29.40;70.70
2995;DHT22;35277;49.890;8.222;2022-08-18T12:51:55;29.40;70.60
2995;DHT22;35277;49.890;8.222;2022-08-18T12:54:25;29.40;71.00
2995;DHT22;35277;49.890;8.222;2022-08-18T12:56:54;29.40;70.50
2995;DHT22;35277;49.890;8.222;2022-08-18T12:59:23;29.40;70.40
2995;DHT22;35277;49.890;8.222;2022-08-18T13:01:51;29.40;70.40
2995;DHT22;35277;49.890;8.222;2022-08-18T13:04:25;29.40;70.30
2995;DHT22;35277;49.890;8.222;2022-08-18T13:06:55;29.40;70.20
2995;DHT22;35277;49.890;8.222;2022-08-18T13:09:29;29.40;70.20
2995;DHT22;35277;49.890;8.222;2022-08-18T13:12:08;29.40;70.10
2995;DHT22;35277;49.890;8.222;2022-08-18T13:14:41;29.40;70.10
2995;DHT22;35277;49.890;8.222;2022-08-18T13:17:10;29.40;70.10
2995;DHT22;35277;49.890;8.222;2022-08-18T13:19:58;29.40;70.00
2995;DHT22;35277;49.890;8.222;2022-08-18T13:22:26;29.40;70.00
2995;DHT22;35277;49.890;8.222;2022-08-18T13:25:01;29.40;69.90
2995;DHT22;35277;49.890;8.222;2022-08-18T13:27:31;29.40;69.90
2995;DHT22;35277;49.890;8.222;2022-08-18T13:30:04;29.40;69.90
2995;DHT22;35277;49.890;8.222;2022-08-18T13:32:53;29.40;69.90
2995;DHT22;35277;49.890;8.222;2022-08-18T13:35:31;29.40;69.90
2995;DHT22;35277;49.890;8.222;2022-08-18T13:38:10;29.40;69.80
2995;DHT22;35277;49.890;8.222;2022-08-18T13:40:46;29.40;69.80
2995;DHT22;35277;49.890;8.222;2022-08-18T13:43:16;29.40;69.80
2995;DHT22;35277;49.890;8.222;2022-08-18T13:45:47;29.40;69.80
2995;DHT22;35277;49.890;8.222;2022-08-18T13:48:21;29.40;69.70
2995;DHT22;35277;49.890;8.222;2022-08-18T13:50:51;29.40;69.80
2995;DHT22;35277;49.890;8.222;2022-08-18T13:53:21;29.40;69.70
2995;DHT22;35277;49.890;8.222;2022-08-18T13:55:51;29.40;69.70
2995;DHT22;35277;49.890;8.222;2022-08-18T13:58:19;29.40;69.70
2995;DHT22;35277;49.890;8.222;2022-08-18T14:00:48;29.40;69.70
2995;DHT22;35277;49.890;8.222;2022-08-18T14:03:20;29.40;69.60
2995;DHT22;35277;49.890;8.222;2022-08-18T14:06:09;29.40;69.50
2995;DHT22;35277;49.890;8.222;2022-08-18T14:08:40;29.40;69.50
2995;DHT22;35277;49.890;8.222;2022-08-18T14:11:09;29.40;69.40
2995;DHT22;35277;49.890;8.222;2022-08-18T14:13:37;29.40;69.30
2995;DHT22;35277;49.890;8.222;2022-08-18T14:16:10;29.40;69.30
2995;DHT22;35277;49.890;8.222;2022-08-18T14:18:45;29.40;69.30
2995;DHT22;35277;49.890;8.222;2022-08-18T14:21:39;29.40;69.30
2995;DHT22;35277;49.890;8.222;2022-08-18T14:24:26;29.50;69.30
2995;DHT22;35277;49.890;8.222;2022-08-18T14:27:16;29.50;69.20
2995;DHT22;35277;49.890;8.222;2022-08-18T14:29:45;29.50;69.20
2995;DHT22;35277;49.890;8.222;2022-08-18T14:32:18;29.40;69.10
2995;DHT22;35277;49.890;8.222;2022-08-18T14:34:56;29.50;69.10
2995;DHT22;35277;49.890;8.222;2022-08-18T14:37:44;29.40;69.00
2995;DHT22;35277;49.890;8.222;2022-08-18T14:40:14;29.50;69.00
2995;DHT22;35277;49.890;8.222;2022-08-18T14:42:43;29.50;69.00
2995;DHT22;35277;49.890;8.222;2022-08-18T14:45:21;29.50;68.90
2995;DHT22;35277;49.890;8.222;2022-08-18T14:48:01;29.50;68.90
2995;DHT22;35277;49.890;8.222;2022-08-18T14:50:33;29.50;68.90
2995;DHT22;35277;49.890;8.222;2022-08-18T14:53:02;29.50;68.80
2995;DHT22;35277;49.890;8.222;2022-08-18T14:55:30;29.50;68.80
2995;DHT22;35277;49.890;8.222;2022-08-18T14:58:01;29.50;68.70
2995;DHT22;35277;49.890;8.222;2022-08-18T15:00:32;29.50;68.70
2995;DHT22;35277;49.890;8.222;2022-08-18T15:03:18;29.50;68.70
2995;DHT22;35277;49.890;8.222;2022-08-18T15:05:54;29.50;68.70
2995;DHT22;35277;49.890;8.222;2022-08-18T15:08:23;29.50;68.70
2995;DHT22;35277;49.890;8.222;2022-08-18T15:10:52;29.50;68.70
2995;DHT22;35277;49.890;8.222;2022-08-18T15:13:22;29.50;68.70
2995;DHT22;35277;49.890;8.222;2022-08-18T15:15:52;29.50;68.70
2995;DHT22;35277;49.890;8.222;2022-08-18T15:18:27;29.50;68.70
2995;DHT22;35277;49.890;8.222;2022-08-18T15:20:58;29.50;68.70
2995;DHT22;35277;49.890;8.222;2022-08-18T15:24:03;29.50;68.70
2995;DHT22;35277;49.890;8.222;2022-08-18T15:26:51;29.50;68.60
2995;DHT22;35277;49.890;8.222;2022-08-18T15:29:33;29.50;69.50
2995;DHT22;35277;49.890;8.222;2022-08-18T15:32:01;29.50;68.70
2995;DHT22;35277;49.890;8.222;2022-08-18T15:34:35;29.50;68.60
2995;DHT22;35277;49.890;8.222;2022-08-18T15:37:17;29.50;68.60
2995;DHT22;35277;49.890;8.222;2022-08-18T15:39:58;29.50;68.50
2995;DHT22;35277;49.890;8.222;2022-08-18T15:42:28;29.50;68.60
2995;DHT22;35277;49.890;8.222;2022-08-18T15:44:59;29.50;68.50
2995;DHT22;35277;49.890;8.222;2022-08-18T15:47:39;29.50;68.50
2995;DHT22;35277;49.890;8.222;2022-08-18T15:50:09;29.50;68.40
2995;DHT22;35277;49.890;8.222;2022-08-18T15:52:58;29.40;68.30
2995;DHT22;35277;49.890;8.222;2022-08-18T15:55:29;29.50;68.30
2995;DHT22;35277;49.890;8.222;2022-08-18T15:58:01;29.50;68.30
2995;DHT22;35277;49.890;8.222;2022-08-18T16:00:40;29.40;68.10
2995;DHT22;35277;49.890;8.222;2022-08-18T16:03:12;29.50;68.10
2995;DHT22;35277;49.890;8.222;2022-08-18T16:05:44;29.50;68.10
2995;DHT22;35277;49.890;8.222;2022-08-18T16:08:12;29.40;68.00
2995;DHT22;35277;49.890;8.222;2022-08-18T16:10:40;29.40;67.90
2995;DHT22;35277;49.890;8.222;2022-08-18T16:13:08;29.40;67.80
2995;DHT22;35277;49.890;8.222;2022-08-18T16:15:39;29.40;67.70
2995;DHT22;35277;49.890;8.222;2022-08-18T16:18:08;29.40;67.60
2995;DHT22;35277;49.890;8.222;2022-08-18T16:20:36;29.40;67.50
2995;DHT22;35277;49.890;8.222;2022-08-18T16:23:05;29.40;67.40
2995;DHT22;35277;49.890;8.222;2022-08-18T16:25:33;29.40;67.40
2995;DHT22;35277;49.890;8.222;2022-08-18T16:28:03;29.40;67.40
2995;DHT22;35277;49.890;8.222;2022-08-18T16:30:32;29.40;67.40
2995;DHT22;35277;49.890;8.222;2022-08-18T16:33:03;29.40;67.40
2995;DHT22;35277;49.890;8.222;2022-08-18T16:35:31;29.40;67.30
2995;DHT22;35277;49.890;8.222;2022-08-18T16:38:02;29.40;67.20
2995;DHT22;35277;49.890;8.222;2022-08-18T16:40:31;29.40;67.20
2995;DHT22;35277;49.890;8.222;2022-08-18T16:42:59;29.40;67.10
2995;DHT22;35277;49.890;8.222;2022-08-18T16:45:27;29.40;67.10
2995;DHT22;35277;49.890;8.222;2022-08-18T16:47:57;29.40;67.00
2995;DHT22;35277;49.890;8.222;2022-08-18T16:50:26;29.40;67.00
2995;DHT22;35277;49.890;8.222;2022-08-18T16:52:54;29.30;66.90
2995;DHT22;35277;49.890;8.222;2022-08-18T16:55:22;29.30;66.80
2995;DHT22;35277;49.890;8.222;2022-08-18T16:57:49;29.30;66.80